sensor_id;sensor_type;location;lat;lon;timestamp;P1;durP1;ratioP1;P2;durP2;ratioP2
74912;SDS011;63878;55.624;37.304;2022-12-18T00:05:50;15.48;;;8.55;;
74912;SDS011;63878;55.624;37.304;2022-12-18T00:15:52;14.45;;;7.75;;
74912;SDS011;63878;55.624;37.304;2022-12-18T00:25:52;16.13;;;7.45;;
74912;SDS011;63878;55.624;37.304;2022-12-18T00:35:53;13.55;;;6.68;;
74912;SDS011;63878;55.624;37.304;2022-12-18T00:45:55;10.40;;;3.78;;
74912;SDS011;63878;55.624;37.304;2022-12-18T00:55:56;12.38;;;6.32;;
74912;SDS011;63878;55.624;37.304;2022-12-18T01:05:56;11.00;;;7.18;;
74912;SDS011;63878;55.624;37.304;2022-12-18T01:15:57;9.52;;;5.13;;
74912;SDS011;63878;55.624;37.304;2022-12-18T01:25:58;9.33;;;5.00;;
74912;SDS011;63878;55.624;37.304;2022-12-18T01:35:58;11.38;;;5.90;;
74912;SDS011;63878;55.624;37.304;2022-12-18T01:45:59;7.32;;;4.47;;
74912;SDS011;63878;55.624;37.304;2022-12-18T01:55:59;7.50;;;4.88;;
74912;SDS011;63878;55.624;37.304;2022-12-18T02:26:19;8.00;;;4.93;;
74912;SDS011;63878;55.624;37.304;2022-12-18T02:36:20;8.30;;;4.32;;
74912;SDS011;63878;55.624;37.304;2022-12-18T02:46:24;12.90;;;6.18;;
74912;SDS011;63878;55.624;37.304;2022-12-18T02:56:30;12.88;;;6.50;;
74912;SDS011;63878;55.624;37.304;2022-12-18T03:06:46;10.82;;;5.53;;
74912;SDS011;63878;55.624;37.304;2022-12-18T03:16:52;9.32;;;5.00;;
74912;SDS011;63878;55.624;37.304;2022-12-18T03:26:57;11.05;;;5.78;;
74912;SDS011;63878;55.624;37.304;2022-12-18T03:37:01;6.32;;;3.45;;
74912;SDS011;63878;55.624;37.304;2022-12-18T03:57:13;8.75;;;4.65;;
74912;SDS011;63878;55.624;37.304;2022-12-18T04:07:17;7.03;;;4.88;;
74912;SDS011;63878;55.624;37.304;2022-12-18T04:17:18;9.90;;;5.32;;
74912;SDS011;63878;55.624;37.304;2022-12-18T04:27:19;6.93;;;4.37;;
74912;SDS011;63878;55.624;37.304;2022-12-18T04:37:20;11.32;;;4.35;;
74912;SDS011;63878;55.624;37.304;2022-12-18T04:47:20;6.80;;;3.65;;
74912;SDS011;63878;55.624;37.304;2022-12-18T04:57:21;7.80;;;3.83;;
74912;SDS011;63878;55.624;37.304;2022-12-18T05:07:21;7.47;;;4.18;;
74912;SDS011;63878;55.624;37.304;2022-12-18T05:17:22;6.43;;;3.35;;
74912;SDS011;63878;55.624;37.304;2022-12-18T05:27:22;17.88;;;6.05;;
74912;SDS011;63878;55.624;37.304;2022-12-18T05:37:23;5.57;;;3.00;;
74912;SDS011;63878;55.624;37.304;2022-12-18T05:47:23;7.22;;;3.90;;
74912;SDS011;63878;55.624;37.304;2022-12-18T05:57:24;8.18;;;4.43;;
74912;SDS011;63878;55.624;37.304;2022-12-18T06:07:25;10.97;;;4.33;;
74912;SDS011;63878;55.624;37.304;2022-12-18T06:17:28;6.22;;;2.65;;
74912;SDS011;63878;55.624;37.304;2022-12-18T06:27:30;3.17;;;2.45;;
74912;SDS011;63878;55.624;37.304;2022-12-18T06:37:31;5.55;;;3.28;;
74912;SDS011;63878;55.624;37.304;2022-12-18T06:47:31;7.45;;;3.85;;
74912;SDS011;63878;55.624;37.304;2022-12-18T06:57:32;8.13;;;3.28;;
74912;SDS011;63878;55.624;37.304;2022-12-18T07:07:33;3.45;;;1.70;;
74912;SDS011;63878;55.624;37.304;2022-12-18T07:17:34;8.18;;;4.35;;
74912;SDS011;63878;55.624;37.304;2022-12-18T07:27:35;9.93;;;5.53;;
74912;SDS011;63878;55.624;37.304;2022-12-18T07:37:35;7.67;;;3.63;;
74912;SDS011;63878;55.624;37.304;2022-12-18T07:47:36;8.70;;;4.60;;
74912;SDS011;63878;55.624;37.304;2022-12-18T07:57:37;8.83;;;4.73;;
74912;SDS011;63878;55.624;37.304;2022-12-18T08:07:37;9.00;;;4.75;;
74912;SDS011;63878;55.624;37.304;2022-12-18T08:17:42;5.43;;;2.45;;
74912;SDS011;63878;55.624;37.304;2022-12-18T08:27:46;7.20;;;4.13;;
74912;SDS011;63878;55.624;37.304;2022-12-18T08:37:53;6.38;;;3.45;;
74912;SDS011;63878;55.624;37.304;2022-12-18T08:47:54;4.72;;;2.95;;
74912;SDS011;63878;55.624;37.304;2022-12-18T08:57:55;6.93;;;3.40;;
74912;SDS011;63878;55.624;37.304;2022-12-18T09:07:55;6.20;;;2.55;;
74912;SDS011;63878;55.624;37.304;2022-12-18T09:17:56;7.75;;;3.88;;
74912;SDS011;63878;55.624;37.304;2022-12-18T09:27:56;5.13;;;2.50;;
74912;SDS011;63878;55.624;37.304;2022-12-18T09:38:14;4.63;;;2.63;;
74912;SDS011;63878;55.624;37.304;2022-12-18T09:48:27;4.30;;;2.67;;
74912;SDS011;63878;55.624;37.304;2022-12-18T09:58:39;4.45;;;2.67;;
74912;SDS011;63878;55.624;37.304;2022-12-18T10:28:54;6.88;;;3.42;;
74912;SDS011;63878;55.624;37.304;2022-12-18T10:49:21;7.68;;;3.50;;
74912;SDS011;63878;55.624;37.304;2022-12-18T10:59:38;7.32;;;4.43;;
74912;SDS011;63878;55.624;37.304;2022-12-18T11:10:02;5.60;;;3.00;;
74912;SDS011;63878;55.624;37.304;2022-12-18T11:20:06;4.70;;;2.80;;
74912;SDS011;63878;55.624;37.304;2022-12-18T11:40:37;4.90;;;2.75;;
74912;SDS011;63878;55.624;37.304;2022-12-18T11:50:50;7.35;;;3.88;;
74912;SDS011;63878;55.624;37.304;2022-12-18T12:01:00;5.10;;;2.42;;
74912;SDS011;63878;55.624;37.304;2022-12-18T12:31:57;5.32;;;2.78;;
74912;SDS011;63878;55.624;37.304;2022-12-18T12:42:38;4.68;;;2.25;;
74912;SDS011;63878;55.624;37.304;2022-12-18T12:52:51;5.82;;;3.08;;
74912;SDS011;63878;55.624;37.304;2022-12-18T13:53:48;16.70;;;7.93;;
74912;SDS011;63878;55.624;37.304;2022-12-18T14:04:21;14.48;;;6.82;;
74912;SDS011;63878;55.624;37.304;2022-12-18T14:14:27;13.63;;;6.63;;
74912;SDS011;63878;55.624;37.304;2022-12-18T14:24:29;12.10;;;5.28;;
74912;SDS011;63878;55.624;37.304;2022-12-18T14:34:29;9.85;;;5.72;;
74912;SDS011;63878;55.624;37.304;2022-12-18T14:44:30;6.20;;;3.05;;
74912;SDS011;63878;55.624;37.304;2022-12-18T14:54:31;6.23;;;3.57;;
74912;SDS011;63878;55.624;37.304;2022-12-18T15:04:34;5.40;;;3.53;;
74912;SDS011;63878;55.624;37.304;2022-12-18T15:14:40;5.63;;;3.30;;
74912;SDS011;63878;55.624;37.304;2022-12-18T15:24:42;6.43;;;2.97;;
74912;SDS011;63878;55.624;37.304;2022-12-18T15:34:43;4.93;;;3.00;;
74912;SDS011;63878;55.624;37.304;2022-12-18T15:44:44;5.97;;;3.50;;
74912;SDS011;63878;55.624;37.304;2022-12-18T15:54:45;4.75;;;2.80;;
74912;SDS011;63878;55.624;37.304;2022-12-18T16:04:45;8.20;;;4.47;;
74912;SDS011;63878;55.624;37.304;2022-12-18T16:14:46;6.07;;;3.88;;
74912;SDS011;63878;55.624;37.304;2022-12-18T16:24:48;7.68;;;4.72;;
74912;SDS011;63878;55.624;37.304;2022-12-18T16:34:50;5.75;;;2.85;;
74912;SDS011;63878;55.624;37.304;2022-12-18T16:44:52;6.72;;;4.07;;
74912;SDS011;63878;55.624;37.304;2022-12-18T16:54:52;6.20;;;3.20;;
74912;SDS011;63878;55.624;37.304;2022-12-18T17:04:54;7.07;;;3.45;;
74912;SDS011;63878;55.624;37.304;2022-12-18T17:14:57;7.97;;;3.72;;
74912;SDS011;63878;55.624;37.304;2022-12-18T17:24:57;5.35;;;3.08;;
74912;SDS011;63878;55.624;37.304;2022-12-18T17:34:58;7.43;;;3.77;;
74912;SDS011;63878;55.624;37.304;2022-12-18T17:44:58;8.90;;;4.63;;
74912;SDS011;63878;55.624;37.304;2022-12-18T17:54:59;8.45;;;3.40;;
74912;SDS011;63878;55.624;37.304;2022-12-18T18:05:00;8.57;;;4.23;;
74912;SDS011;63878;55.624;37.304;2022-12-18T18:15:00;8.50;;;4.43;;
74912;SDS011;63878;55.624;37.304;2022-12-18T18:25:01;13.10;;;5.30;;
74912;SDS011;63878;55.624;37.304;2022-12-18T18:35:01;13.97;;;5.87;;
74912;SDS011;63878;55.624;37.304;2022-12-18T18:45:03;16.75;;;7.57;;
74912;SDS011;63878;55.624;37.304;2022-12-18T18:55:04;15.10;;;5.63;;
74912;SDS011;63878;55.624;37.304;2022-12-18T19:05:05;12.40;;;5.60;;
74912;SDS011;63878;55.624;37.304;2022-12-18T19:15:06;16.05;;;7.32;;
74912;SDS011;63878;55.624;37.304;2022-12-18T19:25:07;13.60;;;6.13;;
74912;SDS011;63878;55.624;37.304;2022-12-18T19:35:08;15.90;;;5.97;;
74912;SDS011;63878;55.624;37.304;2022-12-18T19:45:09;19.05;;;7.22;;
74912;SDS011;63878;55.624;37.304;2022-12-18T19:55:10;19.25;;;8.25;;
74912;SDS011;63878;55.624;37.304;2022-12-18T20:05:11;17.52;;;7.57;;
74912;SDS011;63878;55.624;37.304;2022-12-18T20:15:13;18.00;;;7.55;;
74912;SDS011;63878;55.624;37.304;2022-12-18T20:25:14;13.55;;;5.78;;
74912;SDS011;63878;55.624;37.304;2022-12-18T20:45:15;12.40;;;6.35;;
74912;SDS011;63878;55.624;37.304;2022-12-18T20:55:15;11.60;;;4.63;;
74912;SDS011;63878;55.624;37.304;2022-12-18T21:05:16;10.40;;;5.17;;
74912;SDS011;63878;55.624;37.304;2022-12-18T21:15:17;9.70;;;4.15;;
74912;SDS011;63878;55.624;37.304;2022-12-18T21:25:18;7.28;;;3.45;;
74912;SDS011;63878;55.624;37.304;2022-12-18T21:45:19;9.18;;;5.22;;
74912;SDS011;63878;55.624;37.304;2022-12-18T21:55:20;8.87;;;3.90;;
74912;SDS011;63878;55.624;37.304;2022-12-18T22:05:20;5.97;;;3.37;;
74912;SDS011;63878;55.624;37.304;2022-12-18T22:15:21;6.10;;;3.30;;
74912;SDS011;63878;55.624;37.304;2022-12-18T22:25:21;5.63;;;2.65;;
74912;SDS011;63878;55.624;37.304;2022-12-18T22:35:22;3.72;;;2.05;;
74912;SDS011;63878;55.624;37.304;2022-12-18T22:55:24;6.40;;;2.47;;
74912;SDS011;63878;55.624;37.304;2022-12-18T23:05:25;4.10;;;2.35;;
74912;SDS011;63878;55.624;37.304;2022-12-18T23:25:26;4.10;;;2.47;;
74912;SDS011;63878;55.624;37.304;2022-12-18T23:35:26;2.88;;;1.48;;
74912;SDS011;63878;55.624;37.304;2022-12-18T23:45:27;5.05;;;2.88;;
74912;SDS011;63878;55.624;37.304;2022-12-18T23:55:27;5.30;;;2.17;;
